sensor_id;sensor_type;location;lat;lon;timestamp;temperature;humidity
61398;DHT22;47267;48.130;-2.040;2024-02-16T00:00:17;19.90;56.90
61398;DHT22;47267;48.130;-2.040;2024-02-16T00:02:43;19.90;56.90
61398;DHT22;47267;48.130;-2.040;2024-02-16T00:05:10;19.90;56.90
61398;DHT22;47267;48.130;-2.040;2024-02-16T00:07:39;19.90;56.90
61398;DHT22;47267;48.130;-2.040;2024-02-16T00:10:06;19.90;57.00
61398;DHT22;47267;48.130;-2.040;2024-02-16T00:12:32;19.90;56.90
61398;DHT22;47267;48.130;-2.040;2024-02-16T00:14:59;19.90;56.90
61398;DHT22;47267;48.130;-2.040;2024-02-16T00:17:25;19.90;57.00
61398;DHT22;47267;48.130;-2.040;2024-02-16T00:19:56;19.90;56.90
61398;DHT22;47267;48.130;-2.040;2024-02-16T00:22:23;19.90;57.00
61398;DHT22;47267;48.130;-2.040;2024-02-16T00:24:48;19.90;57.00
61398;DHT22;47267;48.130;-2.040;2024-02-16T00:27:15;19.90;57.00
61398;DHT22;47267;48.130;-2.040;2024-02-16T00:29:41;19.80;57.00
61398;DHT22;47267;48.130;-2.040;2024-02-16T00:32:07;19.90;57.00
61398;DHT22;47267;48.130;-2.040;2024-02-16T00:34:34;19.80;56.90
61398;DHT22;47267;48.130;-2.040;2024-02-16T00:37:00;19.80;57.00
61398;DHT22;47267;48.130;-2.040;2024-02-16T00:39:26;19.90;57.00
61398;DHT22;47267;48.130;-2.040;2024-02-16T00:41:52;19.90;57.00
61398;DHT22;47267;48.130;-2.040;2024-02-16T00:44:18;19.80;57.00
61398;DHT22;47267;48.130;-2.040;2024-02-16T00:46:46;19.80;57.00
61398;DHT22;47267;48.130;-2.040;2024-02-16T00:49:12;19.80;57.00
61398;DHT22;47267;48.130;-2.040;2024-02-16T00:51:39;19.80;57.00
61398;DHT22;47267;48.130;-2.040;2024-02-16T00:54:05;19.80;57.00
61398;DHT22;47267;48.130;-2.040;2024-02-16T00:56:32;19.80;57.00
61398;DHT22;47267;48.130;-2.040;2024-02-16T00:58:58;19.80;57.00
61398;DHT22;47267;48.130;-2.040;2024-02-16T01:01:23;19.80;57.10
61398;DHT22;47267;48.130;-2.040;2024-02-16T01:03:51;19.80;57.00
61398;DHT22;47267;48.130;-2.040;2024-02-16T01:06:17;19.80;57.10
61398;DHT22;47267;48.130;-2.040;2024-02-16T01:08:44;19.80;57.10
61398;DHT22;47267;48.130;-2.040;2024-02-16T01:11:09;19.80;57.10
61398;DHT22;47267;48.130;-2.040;2024-02-16T01:13:35;19.80;57.10
61398;DHT22;47267;48.130;-2.040;2024-02-16T01:16:02;19.80;57.10
61398;DHT22;47267;48.130;-2.040;2024-02-16T01:18:29;19.80;57.10
61398;DHT22;47267;48.130;-2.040;2024-02-16T01:20:55;19.80;57.20
61398;DHT22;47267;48.130;-2.040;2024-02-16T01:23:21;19.80;57.10
61398;DHT22;47267;48.130;-2.040;2024-02-16T01:25:47;19.80;57.20
61398;DHT22;47267;48.130;-2.040;2024-02-16T01:28:14;19.80;57.10
61398;DHT22;47267;48.130;-2.040;2024-02-16T01:30:40;19.80;57.20
61398;DHT22;47267;48.130;-2.040;2024-02-16T01:33:06;19.80;57.20
61398;DHT22;47267;48.130;-2.040;2024-02-16T01:35:35;19.80;57.20
61398;DHT22;47267;48.130;-2.040;2024-02-16T01:38:00;19.80;57.20
61398;DHT22;47267;48.130;-2.040;2024-02-16T01:40:29;19.80;57.20
61398;DHT22;47267;48.130;-2.040;2024-02-16T01:42:55;19.80;57.20
61398;DHT22;47267;48.130;-2.040;2024-02-16T01:45:21;19.80;57.20
61398;DHT22;47267;48.130;-2.040;2024-02-16T01:47:51;19.80;57.20
61398;DHT22;47267;48.130;-2.040;2024-02-16T01:50:18;19.80;57.20
61398;DHT22;47267;48.130;-2.040;2024-02-16T01:52:45;19.80;57.20
61398;DHT22;47267;48.130;-2.040;2024-02-16T01:55:12;19.80;57.20
61398;DHT22;47267;48.130;-2.040;2024-02-16T01:57:43;19.80;57.20
61398;DHT22;47267;48.130;-2.040;2024-02-16T02:00:10;19.80;57.20
61398;DHT22;47267;48.130;-2.040;2024-02-16T02:02:36;19.80;57.30
61398;DHT22;47267;48.130;-2.040;2024-02-16T02:05:02;19.80;57.30
61398;DHT22;47267;48.130;-2.040;2024-02-16T02:07:29;19.80;57.20
61398;DHT22;47267;48.130;-2.040;2024-02-16T02:09:55;19.80;57.30
61398;DHT22;47267;48.130;-2.040;2024-02-16T02:12:21;19.80;57.30
61398;DHT22;47267;48.130;-2.040;2024-02-16T02:14:48;19.80;57.30
61398;DHT22;47267;48.130;-2.040;2024-02-16T02:17:14;19.80;57.30
61398;DHT22;47267;48.130;-2.040;2024-02-16T02:19:40;19.80;57.30
61398;DHT22;47267;48.130;-2.040;2024-02-16T02:22:13;19.80;57.30
61398;DHT22;47267;48.130;-2.040;2024-02-16T02:24:39;19.80;57.30
61398;DHT22;47267;48.130;-2.040;2024-02-16T02:27:05;19.80;57.30
61398;DHT22;47267;48.130;-2.040;2024-02-16T02:29:30;19.80;57.40
61398;DHT22;47267;48.130;-2.040;2024-02-16T02:31:56;19.80;57.40
61398;DHT22;47267;48.130;-2.040;2024-02-16T02:34:22;19.80;57.40
61398;DHT22;47267;48.130;-2.040;2024-02-16T02:36:48;19.80;57.30
61398;DHT22;47267;48.130;-2.040;2024-02-16T02:39:14;19.80;57.40
61398;DHT22;47267;48.130;-2.040;2024-02-16T02:41:40;19.80;57.30
61398;DHT22;47267;48.130;-2.040;2024-02-16T02:44:05;19.80;57.40
61398;DHT22;47267;48.130;-2.040;2024-02-16T02:46:31;19.80;57.30
61398;DHT22;47267;48.130;-2.040;2024-02-16T02:48:57;19.80;57.40
61398;DHT22;47267;48.130;-2.040;2024-02-16T02:51:22;19.80;57.40
61398;DHT22;47267;48.130;-2.040;2024-02-16T02:53:49;19.80;57.40
61398;DHT22;47267;48.130;-2.040;2024-02-16T02:56:14;19.80;57.40
61398;DHT22;47267;48.130;-2.040;2024-02-16T02:58:40;19.80;57.40
61398;DHT22;47267;48.130;-2.040;2024-02-16T03:01:06;19.80;57.40
61398;DHT22;47267;48.130;-2.040;2024-02-16T03:03:33;19.80;57.40
61398;DHT22;47267;48.130;-2.040;2024-02-16T03:05:59;19.80;57.40
61398;DHT22;47267;48.130;-2.040;2024-02-16T03:08:25;19.80;57.40
61398;DHT22;47267;48.130;-2.040;2024-02-16T03:10:51;19.80;57.40
61398;DHT22;47267;48.130;-2.040;2024-02-16T03:13:17;19.80;57.40
61398;DHT22;47267;48.130;-2.040;2024-02-16T03:15:45;19.80;57.40
61398;DHT22;47267;48.130;-2.040;2024-02-16T03:18:10;19.80;57.40
61398;DHT22;47267;48.130;-2.040;2024-02-16T03:20:36;19.80;57.40
61398;DHT22;47267;48.130;-2.040;2024-02-16T03:23:02;19.80;57.40
61398;DHT22;47267;48.130;-2.040;2024-02-16T03:25:28;19.80;57.50
61398;DHT22;47267;48.130;-2.040;2024-02-16T03:27:54;19.80;57.40
61398;DHT22;47267;48.130;-2.040;2024-02-16T03:30:20;19.80;57.40
61398;DHT22;47267;48.130;-2.040;2024-02-16T03:32:49;19.80;57.50
61398;DHT22;47267;48.130;-2.040;2024-02-16T03:35:16;19.80;57.50
61398;DHT22;47267;48.130;-2.040;2024-02-16T03:37:41;19.80;57.40
61398;DHT22;47267;48.130;-2.040;2024-02-16T03:40:08;19.80;57.40
61398;DHT22;47267;48.130;-2.040;2024-02-16T03:42:35;19.80;57.50
61398;DHT22;47267;48.130;-2.040;2024-02-16T03:45:04;19.80;57.40
61398;DHT22;47267;48.130;-2.040;2024-02-16T03:47:30;19.80;57.40
61398;DHT22;47267;48.130;-2.040;2024-02-16T03:49:55;19.80;57.50
61398;DHT22;47267;48.130;-2.040;2024-02-16T03:52:21;19.80;57.40
61398;DHT22;47267;48.130;-2.040;2024-02-16T03:54:47;19.80;57.50
61398;DHT22;47267;48.130;-2.040;2024-02-16T03:57:15;19.80;57.40
61398;DHT22;47267;48.130;-2.040;2024-02-16T03:59:42;19.80;57.50
61398;DHT22;47267;48.130;-2.040;2024-02-16T04:02:09;19.80;57.50
61398;DHT22;47267;48.130;-2.040;2024-02-16T04:04:36;19.80;57.50
61398;DHT22;47267;48.130;-2.040;2024-02-16T04:07:02;19.80;57.40
61398;DHT22;47267;48.130;-2.040;2024-02-16T04:09:27;19.80;57.50
61398;DHT22;47267;48.130;-2.040;2024-02-16T04:11:53;19.80;57.50
61398;DHT22;47267;48.130;-2.040;2024-02-16T04:14:19;19.80;57.50
61398;DHT22;47267;48.130;-2.040;2024-02-16T04:16:44;19.70;57.50
61398;DHT22;47267;48.130;-2.040;2024-02-16T04:19:10;19.80;57.50
61398;DHT22;47267;48.130;-2.040;2024-02-16T04:21:36;19.70;57.50
61398;DHT22;47267;48.130;-2.040;2024-02-16T04:24:02;19.80;57.60
61398;DHT22;47267;48.130;-2.040;2024-02-16T04:26:28;19.80;57.50
61398;DHT22;47267;48.130;-2.040;2024-02-16T04:28:54;19.80;57.50
61398;DHT22;47267;48.130;-2.040;2024-02-16T04:31:20;19.70;57.50
61398;DHT22;47267;48.130;-2.040;2024-02-16T04:33:45;19.70;57.40
61398;DHT22;47267;48.130;-2.040;2024-02-16T04:36:11;19.70;57.50
61398;DHT22;47267;48.130;-2.040;2024-02-16T04:38:37;19.80;57.50
61398;DHT22;47267;48.130;-2.040;2024-02-16T04:41:05;19.70;57.40
61398;DHT22;47267;48.130;-2.040;2024-02-16T04:43:30;19.70;57.50
61398;DHT22;47267;48.130;-2.040;2024-02-16T04:45:56;19.70;57.50
61398;DHT22;47267;48.130;-2.040;2024-02-16T04:48:22;19.70;57.50
61398;DHT22;47267;48.130;-2.040;2024-02-16T04:50:47;19.70;57.50
61398;DHT22;47267;48.130;-2.040;2024-02-16T04:53:13;19.70;57.50
61398;DHT22;47267;48.130;-2.040;2024-02-16T04:55:39;19.70;57.50
61398;DHT22;47267;48.130;-2.040;2024-02-16T04:58:04;19.80;57.60
61398;DHT22;47267;48.130;-2.040;2024-02-16T05:00:37;19.80;57.60
61398;DHT22;47267;48.130;-2.040;2024-02-16T05:03:03;19.70;57.50
61398;DHT22;47267;48.130;-2.040;2024-02-16T05:05:28;19.70;57.50
61398;DHT22;47267;48.130;-2.040;2024-02-16T05:07:54;19.70;57.50
61398;DHT22;47267;48.130;-2.040;2024-02-16T05:10:20;19.70;57.50
61398;DHT22;47267;48.130;-2.040;2024-02-16T05:12:46;19.70;57.50
61398;DHT22;47267;48.130;-2.040;2024-02-16T05:15:11;19.70;57.60
61398;DHT22;47267;48.130;-2.040;2024-02-16T05:17:41;19.70;57.50
61398;DHT22;47267;48.130;-2.040;2024-02-16T05:20:10;19.70;57.50
61398;DHT22;47267;48.130;-2.040;2024-02-16T05:22:44;19.70;57.60
61398;DHT22;47267;48.130;-2.040;2024-02-16T05:25:13;19.70;57.50
61398;DHT22;47267;48.130;-2.040;2024-02-16T05:27:39;19.70;57.50
61398;DHT22;47267;48.130;-2.040;2024-02-16T05:30:06;19.70;57.50
61398;DHT22;47267;48.130;-2.040;2024-02-16T05:32:37;19.70;57.50
61398;DHT22;47267;48.130;-2.040;2024-02-16T05:35:04;19.70;57.50
61398;DHT22;47267;48.130;-2.040;2024-02-16T05:37:37;19.70;57.60
61398;DHT22;47267;48.130;-2.040;2024-02-16T05:40:07;19.70;57.60
61398;DHT22;47267;48.130;-2.040;2024-02-16T05:42:45;19.70;57.60
61398;DHT22;47267;48.130;-2.040;2024-02-16T05:45:11;19.70;57.50
61398;DHT22;47267;48.130;-2.040;2024-02-16T05:47:37;19.70;57.50
61398;DHT22;47267;48.130;-2.040;2024-02-16T05:50:04;19.70;57.50
61398;DHT22;47267;48.130;-2.040;2024-02-16T05:52:30;19.70;57.50
61398;DHT22;47267;48.130;-2.040;2024-02-16T05:54:56;19.70;57.50
61398;DHT22;47267;48.130;-2.040;2024-02-16T05:57:21;19.70;57.50
61398;DHT22;47267;48.130;-2.040;2024-02-16T05:59:49;19.70;57.50
61398;DHT22;47267;48.130;-2.040;2024-02-16T06:02:15;19.70;57.60
61398;DHT22;47267;48.130;-2.040;2024-02-16T06:04:41;19.70;57.50
61398;DHT22;47267;48.130;-2.040;2024-02-16T06:07:07;19.70;57.50
61398;DHT22;47267;48.130;-2.040;2024-02-16T06:09:34;19.70;57.50
61398;DHT22;47267;48.130;-2.040;2024-02-16T06:12:04;19.70;57.50
61398;DHT22;47267;48.130;-2.040;2024-02-16T06:14:31;19.70;57.50
61398;DHT22;47267;48.130;-2.040;2024-02-16T06:16:57;19.70;57.50
61398;DHT22;47267;48.130;-2.040;2024-02-16T06:19:22;19.70;57.50
61398;DHT22;47267;48.130;-2.040;2024-02-16T06:21:48;19.70;57.50
61398;DHT22;47267;48.130;-2.040;2024-02-16T06:24:14;19.70;58.10
61398;DHT22;47267;48.130;-2.040;2024-02-16T06:26:39;19.70;57.50
61398;DHT22;47267;48.130;-2.040;2024-02-16T06:29:05;19.70;57.60
61398;DHT22;47267;48.130;-2.040;2024-02-16T06:31:30;19.70;57.70
61398;DHT22;47267;48.130;-2.040;2024-02-16T06:33:56;19.70;57.80
61398;DHT22;47267;48.130;-2.040;2024-02-16T06:36:22;19.70;57.90
61398;DHT22;47267;48.130;-2.040;2024-02-16T06:38:48;19.70;58.00
61398;DHT22;47267;48.130;-2.040;2024-02-16T06:41:14;19.70;58.10
61398;DHT22;47267;48.130;-2.040;2024-02-16T06:43:40;19.70;58.30
61398;DHT22;47267;48.130;-2.040;2024-02-16T06:46:05;19.70;58.40
61398;DHT22;47267;48.130;-2.040;2024-02-16T06:48:31;19.70;58.50
61398;DHT22;47267;48.130;-2.040;2024-02-16T06:50:57;19.70;58.40
61398;DHT22;47267;48.130;-2.040;2024-02-16T06:53:22;19.70;58.60
61398;DHT22;47267;48.130;-2.040;2024-02-16T06:55:48;19.70;58.80
61398;DHT22;47267;48.130;-2.040;2024-02-16T06:58:14;19.70;58.80
61398;DHT22;47267;48.130;-2.040;2024-02-16T07:00:40;19.70;58.80
61398;DHT22;47267;48.130;-2.040;2024-02-16T07:03:08;19.70;58.80
61398;DHT22;47267;48.130;-2.040;2024-02-16T07:05:35;19.70;59.00
61398;DHT22;47267;48.130;-2.040;2024-02-16T07:08:00;19.70;59.40
61398;DHT22;47267;48.130;-2.040;2024-02-16T07:10:26;19.70;59.50
61398;DHT22;47267;48.130;-2.040;2024-02-16T07:12:52;19.70;59.60
61398;DHT22;47267;48.130;-2.040;2024-02-16T07:15:17;19.80;59.80
61398;DHT22;47267;48.130;-2.040;2024-02-16T07:17:43;19.80;60.00
61398;DHT22;47267;48.130;-2.040;2024-02-16T07:20:10;19.80;60.00
61398;DHT22;47267;48.130;-2.040;2024-02-16T07:22:36;19.80;60.00
61398;DHT22;47267;48.130;-2.040;2024-02-16T07:25:01;19.90;60.00
61398;DHT22;47267;48.130;-2.040;2024-02-16T07:27:28;19.90;60.00
61398;DHT22;47267;48.130;-2.040;2024-02-16T07:29:54;19.90;60.10
61398;DHT22;47267;48.130;-2.040;2024-02-16T07:32:20;19.90;60.00
61398;DHT22;47267;48.130;-2.040;2024-02-16T07:34:46;20.00;60.10
61398;DHT22;47267;48.130;-2.040;2024-02-16T07:37:15;20.00;60.10
61398;DHT22;47267;48.130;-2.040;2024-02-16T07:39:41;20.00;60.30
61398;DHT22;47267;48.130;-2.040;2024-02-16T07:42:07;20.10;60.20
61398;DHT22;47267;48.130;-2.040;2024-02-16T07:44:37;20.10;60.20
61398;DHT22;47267;48.130;-2.040;2024-02-16T07:47:02;20.10;60.30
61398;DHT22;47267;48.130;-2.040;2024-02-16T07:49:28;20.10;60.20
61398;DHT22;47267;48.130;-2.040;2024-02-16T07:51:54;20.10;60.20
61398;DHT22;47267;48.130;-2.040;2024-02-16T07:54:20;20.10;60.20
61398;DHT22;47267;48.130;-2.040;2024-02-16T07:56:46;20.20;60.30
61398;DHT22;47267;48.130;-2.040;2024-02-16T07:59:12;20.20;60.30
61398;DHT22;47267;48.130;-2.040;2024-02-16T08:01:38;20.20;60.30
61398;DHT22;47267;48.130;-2.040;2024-02-16T08:04:04;20.20;60.30
61398;DHT22;47267;48.130;-2.040;2024-02-16T08:06:30;20.30;60.40
61398;DHT22;47267;48.130;-2.040;2024-02-16T08:08:56;20.30;60.40
61398;DHT22;47267;48.130;-2.040;2024-02-16T08:11:22;20.30;60.40
61398;DHT22;47267;48.130;-2.040;2024-02-16T08:13:48;20.30;60.50
61398;DHT22;47267;48.130;-2.040;2024-02-16T08:16:13;20.40;60.80
61398;DHT22;47267;48.130;-2.040;2024-02-16T08:18:39;20.40;60.50
61398;DHT22;47267;48.130;-2.040;2024-02-16T08:21:05;20.40;60.50
61398;DHT22;47267;48.130;-2.040;2024-02-16T08:23:30;20.40;60.60
61398;DHT22;47267;48.130;-2.040;2024-02-16T08:25:56;20.40;60.70
61398;DHT22;47267;48.130;-2.040;2024-02-16T08:28:24;20.40;60.70
61398;DHT22;47267;48.130;-2.040;2024-02-16T08:30:50;20.50;60.80
61398;DHT22;47267;48.130;-2.040;2024-02-16T08:33:16;20.50;60.80
61398;DHT22;47267;48.130;-2.040;2024-02-16T08:35:41;20.50;60.80
61398;DHT22;47267;48.130;-2.040;2024-02-16T08:38:07;20.50;60.80
61398;DHT22;47267;48.130;-2.040;2024-02-16T08:40:39;20.60;61.00
61398;DHT22;47267;48.130;-2.040;2024-02-16T08:43:06;20.60;61.00
61398;DHT22;47267;48.130;-2.040;2024-02-16T08:45:33;20.60;60.80
61398;DHT22;47267;48.130;-2.040;2024-02-16T08:47:58;20.60;60.90
61398;DHT22;47267;48.130;-2.040;2024-02-16T08:50:26;20.60;60.90
61398;DHT22;47267;48.130;-2.040;2024-02-16T08:52:52;20.60;60.80
61398;DHT22;47267;48.130;-2.040;2024-02-16T08:55:18;20.70;60.90
61398;DHT22;47267;48.130;-2.040;2024-02-16T08:57:44;20.70;61.00
61398;DHT22;47267;48.130;-2.040;2024-02-16T09:00:11;20.70;60.90
61398;DHT22;47267;48.130;-2.040;2024-02-16T09:02:38;20.70;60.80
61398;DHT22;47267;48.130;-2.040;2024-02-16T09:05:04;20.70;61.00
61398;DHT22;47267;48.130;-2.040;2024-02-16T09:07:30;20.70;60.90
61398;DHT22;47267;48.130;-2.040;2024-02-16T09:09:56;20.80;60.90
61398;DHT22;47267;48.130;-2.040;2024-02-16T09:12:22;20.80;61.10
61398;DHT22;47267;48.130;-2.040;2024-02-16T09:14:48;20.80;61.00
61398;DHT22;47267;48.130;-2.040;2024-02-16T09:17:14;20.80;60.90
61398;DHT22;47267;48.130;-2.040;2024-02-16T09:19:40;20.80;61.00
61398;DHT22;47267;48.130;-2.040;2024-02-16T09:22:05;20.90;61.10
61398;DHT22;47267;48.130;-2.040;2024-02-16T09:24:32;20.80;61.10
61398;DHT22;47267;48.130;-2.040;2024-02-16T09:26:58;20.90;61.10
61398;DHT22;47267;48.130;-2.040;2024-02-16T09:29:29;20.90;61.10
61398;DHT22;47267;48.130;-2.040;2024-02-16T09:31:54;20.90;61.00
61398;DHT22;47267;48.130;-2.040;2024-02-16T09:34:20;20.90;61.70
61398;DHT22;47267;48.130;-2.040;2024-02-16T09:36:46;20.80;58.30
61398;DHT22;47267;48.130;-2.040;2024-02-16T09:39:11;20.80;57.70
61398;DHT22;47267;48.130;-2.040;2024-02-16T09:41:41;20.70;57.60
61398;DHT22;47267;48.130;-2.040;2024-02-16T09:44:07;20.70;57.50
61398;DHT22;47267;48.130;-2.040;2024-02-16T09:46:35;20.60;57.70
61398;DHT22;47267;48.130;-2.040;2024-02-16T09:49:02;20.70;57.80
61398;DHT22;47267;48.130;-2.040;2024-02-16T09:51:29;20.60;57.70
61398;DHT22;47267;48.130;-2.040;2024-02-16T09:53:54;20.60;57.60
61398;DHT22;47267;48.130;-2.040;2024-02-16T09:56:23;20.60;57.60
61398;DHT22;47267;48.130;-2.040;2024-02-16T09:58:52;20.60;57.70
61398;DHT22;47267;48.130;-2.040;2024-02-16T10:01:21;20.60;57.70
61398;DHT22;47267;48.130;-2.040;2024-02-16T10:03:48;20.60;57.70
61398;DHT22;47267;48.130;-2.040;2024-02-16T10:06:15;20.60;57.80
61398;DHT22;47267;48.130;-2.040;2024-02-16T10:08:54;20.60;57.70
61398;DHT22;47267;48.130;-2.040;2024-02-16T10:11:21;20.60;57.70
61398;DHT22;47267;48.130;-2.040;2024-02-16T10:14:02;20.60;57.70
61398;DHT22;47267;48.130;-2.040;2024-02-16T10:16:28;20.60;57.80
61398;DHT22;47267;48.130;-2.040;2024-02-16T10:19:07;20.60;57.80
61398;DHT22;47267;48.130;-2.040;2024-02-16T10:21:33;20.60;57.80
61398;DHT22;47267;48.130;-2.040;2024-02-16T10:26:28;20.60;57.80
61398;DHT22;47267;48.130;-2.040;2024-02-16T10:28:55;20.60;57.70
61398;DHT22;47267;48.130;-2.040;2024-02-16T10:31:25;20.60;57.70
61398;DHT22;47267;48.130;-2.040;2024-02-16T10:34:05;20.60;57.70
61398;DHT22;47267;48.130;-2.040;2024-02-16T10:36:32;20.60;57.70
61398;DHT22;47267;48.130;-2.040;2024-02-16T10:38:59;20.60;57.70
61398;DHT22;47267;48.130;-2.040;2024-02-16T10:41:28;20.60;57.70
61398;DHT22;47267;48.130;-2.040;2024-02-16T10:43:55;20.60;57.70
61398;DHT22;47267;48.130;-2.040;2024-02-16T10:46:22;20.60;57.70
61398;DHT22;47267;48.130;-2.040;2024-02-16T10:48:48;20.60;57.70
61398;DHT22;47267;48.130;-2.040;2024-02-16T10:51:15;20.60;57.70
61398;DHT22;47267;48.130;-2.040;2024-02-16T10:53:44;20.60;57.70
61398;DHT22;47267;48.130;-2.040;2024-02-16T10:56:10;20.60;57.70
61398;DHT22;47267;48.130;-2.040;2024-02-16T10:58:37;20.60;57.90
61398;DHT22;47267;48.130;-2.040;2024-02-16T11:01:09;20.70;57.80
61398;DHT22;47267;48.130;-2.040;2024-02-16T11:03:38;20.70;57.80
61398;DHT22;47267;48.130;-2.040;2024-02-16T11:06:16;20.70;57.80
61398;DHT22;47267;48.130;-2.040;2024-02-16T11:08:43;20.70;57.80
61398;DHT22;47267;48.130;-2.040;2024-02-16T11:11:08;20.70;57.70
61398;DHT22;47267;48.130;-2.040;2024-02-16T11:13:37;20.70;57.80
61398;DHT22;47267;48.130;-2.040;2024-02-16T11:16:07;20.80;57.80
61398;DHT22;47267;48.130;-2.040;2024-02-16T11:18:38;20.80;57.80
61398;DHT22;47267;48.130;-2.040;2024-02-16T11:21:14;20.70;57.70
61398;DHT22;47267;48.130;-2.040;2024-02-16T11:23:40;20.80;57.80
61398;DHT22;47267;48.130;-2.040;2024-02-16T11:26:10;20.70;57.80
61398;DHT22;47267;48.130;-2.040;2024-02-16T11:28:41;20.70;57.80
61398;DHT22;47267;48.130;-2.040;2024-02-16T11:31:07;20.70;57.90
61398;DHT22;47267;48.130;-2.040;2024-02-16T11:33:33;20.70;57.90
61398;DHT22;47267;48.130;-2.040;2024-02-16T11:36:04;20.70;57.90
61398;DHT22;47267;48.130;-2.040;2024-02-16T11:38:33;20.70;58.00
61398;DHT22;47267;48.130;-2.040;2024-02-16T11:41:06;20.70;57.90
61398;DHT22;47267;48.130;-2.040;2024-02-16T11:43:33;20.70;58.00
61398;DHT22;47267;48.130;-2.040;2024-02-16T11:45:59;20.70;58.10
61398;DHT22;47267;48.130;-2.040;2024-02-16T11:48:26;20.70;58.10
61398;DHT22;47267;48.130;-2.040;2024-02-16T11:51:02;20.70;58.20
61398;DHT22;47267;48.130;-2.040;2024-02-16T11:53:32;20.70;58.10
61398;DHT22;47267;48.130;-2.040;2024-02-16T11:55:58;20.70;58.10
61398;DHT22;47267;48.130;-2.040;2024-02-16T11:58:24;20.60;58.10
61398;DHT22;47267;48.130;-2.040;2024-02-16T12:00:50;20.60;58.00
61398;DHT22;47267;48.130;-2.040;2024-02-16T12:03:26;20.60;57.90
61398;DHT22;47267;48.130;-2.040;2024-02-16T12:05:57;20.60;58.00
61398;DHT22;47267;48.130;-2.040;2024-02-16T12:08:24;20.60;58.00
61398;DHT22;47267;48.130;-2.040;2024-02-16T12:10:51;20.60;57.90
61398;DHT22;47267;48.130;-2.040;2024-02-16T12:13:18;20.60;58.10
61398;DHT22;47267;48.130;-2.040;2024-02-16T12:15:48;20.60;57.90
61398;DHT22;47267;48.130;-2.040;2024-02-16T12:18:21;20.50;57.90
61398;DHT22;47267;48.130;-2.040;2024-02-16T12:21:17;20.50;58.00
61398;DHT22;47267;48.130;-2.040;2024-02-16T12:23:45;20.50;57.90
61398;DHT22;47267;48.130;-2.040;2024-02-16T12:26:10;20.50;58.50
61398;DHT22;47267;48.130;-2.040;2024-02-16T12:28:36;20.50;57.90
61398;DHT22;47267;48.130;-2.040;2024-02-16T12:31:02;20.50;58.00
61398;DHT22;47267;48.130;-2.040;2024-02-16T12:33:28;20.50;57.90
61398;DHT22;47267;48.130;-2.040;2024-02-16T12:35:54;20.50;57.90
61398;DHT22;47267;48.130;-2.040;2024-02-16T12:38:19;20.40;57.90
61398;DHT22;47267;48.130;-2.040;2024-02-16T12:40:49;20.40;58.00
61398;DHT22;47267;48.130;-2.040;2024-02-16T12:43:14;20.40;58.00
61398;DHT22;47267;48.130;-2.040;2024-02-16T12:45:41;20.50;58.00
61398;DHT22;47267;48.130;-2.040;2024-02-16T12:48:07;20.50;57.90
61398;DHT22;47267;48.130;-2.040;2024-02-16T12:50:33;20.50;57.90
61398;DHT22;47267;48.130;-2.040;2024-02-16T12:52:58;20.50;58.50
61398;DHT22;47267;48.130;-2.040;2024-02-16T12:55:25;20.50;57.90
61398;DHT22;47267;48.130;-2.040;2024-02-16T12:57:51;20.50;58.50
61398;DHT22;47267;48.130;-2.040;2024-02-16T13:00:17;20.50;57.90
61398;DHT22;47267;48.130;-2.040;2024-02-16T13:02:43;20.50;57.80
61398;DHT22;47267;48.130;-2.040;2024-02-16T13:05:08;20.50;57.90
61398;DHT22;47267;48.130;-2.040;2024-02-16T13:07:34;20.50;58.00
61398;DHT22;47267;48.130;-2.040;2024-02-16T13:10:00;20.50;57.80
61398;DHT22;47267;48.130;-2.040;2024-02-16T13:12:26;20.50;57.80
61398;DHT22;47267;48.130;-2.040;2024-02-16T13:14:52;20.50;57.70
61398;DHT22;47267;48.130;-2.040;2024-02-16T13:17:19;20.50;57.70
61398;DHT22;47267;48.130;-2.040;2024-02-16T13:19:45;20.60;57.70
61398;DHT22;47267;48.130;-2.040;2024-02-16T13:22:11;20.50;57.60
61398;DHT22;47267;48.130;-2.040;2024-02-16T13:24:37;20.60;57.70
61398;DHT22;47267;48.130;-2.040;2024-02-16T13:27:03;20.60;57.60
61398;DHT22;47267;48.130;-2.040;2024-02-16T13:29:31;20.60;57.60
61398;DHT22;47267;48.130;-2.040;2024-02-16T13:31:57;20.60;57.50
61398;DHT22;47267;48.130;-2.040;2024-02-16T13:34:22;20.60;57.50
61398;DHT22;47267;48.130;-2.040;2024-02-16T13:36:49;20.60;57.50
61398;DHT22;47267;48.130;-2.040;2024-02-16T13:39:14;20.60;57.50
61398;DHT22;47267;48.130;-2.040;2024-02-16T13:41:41;20.60;57.40
61398;DHT22;47267;48.130;-2.040;2024-02-16T13:44:09;20.60;57.40
61398;DHT22;47267;48.130;-2.040;2024-02-16T13:46:35;20.60;57.30
61398;DHT22;47267;48.130;-2.040;2024-02-16T13:49:01;20.60;57.30
61398;DHT22;47267;48.130;-2.040;2024-02-16T13:51:26;20.60;57.30
61398;DHT22;47267;48.130;-2.040;2024-02-16T13:53:52;20.60;57.20
61398;DHT22;47267;48.130;-2.040;2024-02-16T13:56:18;20.70;57.30
61398;DHT22;47267;48.130;-2.040;2024-02-16T13:58:43;20.70;57.20
61398;DHT22;47267;48.130;-2.040;2024-02-16T14:01:09;20.70;57.10
61398;DHT22;47267;48.130;-2.040;2024-02-16T14:03:35;20.70;57.10
61398;DHT22;47267;48.130;-2.040;2024-02-16T14:06:02;20.70;57.10
61398;DHT22;47267;48.130;-2.040;2024-02-16T14:08:28;20.70;57.10
61398;DHT22;47267;48.130;-2.040;2024-02-16T14:10:53;20.70;57.10
61398;DHT22;47267;48.130;-2.040;2024-02-16T14:13:19;20.80;57.10
61398;DHT22;47267;48.130;-2.040;2024-02-16T14:15:46;20.80;57.00
61398;DHT22;47267;48.130;-2.040;2024-02-16T14:18:12;20.80;57.00
61398;DHT22;47267;48.130;-2.040;2024-02-16T14:20:38;20.80;57.00
61398;DHT22;47267;48.130;-2.040;2024-02-16T14:23:04;20.80;57.00
61398;DHT22;47267;48.130;-2.040;2024-02-16T14:25:32;20.80;56.90
61398;DHT22;47267;48.130;-2.040;2024-02-16T14:27:58;20.90;57.00
61398;DHT22;47267;48.130;-2.040;2024-02-16T14:30:24;20.90;56.90
61398;DHT22;47267;48.130;-2.040;2024-02-16T14:32:49;21.00;57.40
61398;DHT22;47267;48.130;-2.040;2024-02-16T14:35:15;20.90;56.80
61398;DHT22;47267;48.130;-2.040;2024-02-16T14:37:41;21.00;56.80
61398;DHT22;47267;48.130;-2.040;2024-02-16T14:40:07;21.00;56.80
61398;DHT22;47267;48.130;-2.040;2024-02-16T14:42:35;21.00;56.80
61398;DHT22;47267;48.130;-2.040;2024-02-16T14:45:01;21.00;56.70
61398;DHT22;47267;48.130;-2.040;2024-02-16T14:47:28;21.00;56.70
61398;DHT22;47267;48.130;-2.040;2024-02-16T14:49:54;21.10;56.60
61398;DHT22;47267;48.130;-2.040;2024-02-16T14:52:19;21.10;56.80
61398;DHT22;47267;48.130;-2.040;2024-02-16T14:54:45;21.10;56.60
61398;DHT22;47267;48.130;-2.040;2024-02-16T14:57:11;21.10;56.50
61398;DHT22;47267;48.130;-2.040;2024-02-16T14:59:37;21.40;56.40
61398;DHT22;47267;48.130;-2.040;2024-02-16T15:02:03;21.60;56.30
61398;DHT22;47267;48.130;-2.040;2024-02-16T15:04:28;21.80;55.30
61398;DHT22;47267;48.130;-2.040;2024-02-16T15:06:56;21.90;55.10
61398;DHT22;47267;48.130;-2.040;2024-02-16T15:09:21;21.90;54.90
61398;DHT22;47267;48.130;-2.040;2024-02-16T15:11:47;21.90;54.80
61398;DHT22;47267;48.130;-2.040;2024-02-16T15:14:13;22.00;54.70